createdAt,value
2018-10-21T00:02:22.889Z,99.90
2018-10-21T00:04:50.983Z,99.90
2018-10-21T00:07:19.261Z,99.90
2018-10-21T00:09:47.417Z,99.90
2018-10-21T00:12:15.570Z,99.90
2018-10-21T00:14:43.727Z,99.90
2018-10-21T00:17:11.893Z,99.90
2018-10-21T00:19:40.073Z,99.90
2018-10-21T00:22:08.253Z,99.90
2018-10-21T00:24:36.426Z,99.90
2018-10-21T00:27:05.541Z,99.90
2018-10-21T00:29:33.641Z,99.90
2018-10-21T00:32:01.825Z,99.90
2018-10-21T00:34:29.978Z,99.90
2018-10-21T00:36:58.118Z,99.90
2018-10-21T00:39:26.276Z,99.90
2018-10-21T00:41:54.433Z,99.90
2018-10-21T00:44:22.564Z,99.90
2018-10-21T00:46:50.713Z,99.90
2018-10-21T00:49:18.872Z,99.90
2018-10-21T00:51:47.036Z,99.90
2018-10-21T00:54:16.153Z,99.90
2018-10-21T00:56:45.837Z,99.90
2018-10-21T00:59:13.983Z,99.90
2018-10-21T01:01:42.209Z,99.90
2018-10-21T01:04:10.483Z,99.90
2018-10-21T01:06:38.585Z,99.90
2018-10-21T01:09:10.308Z,99.90
2018-10-21T01:11:39.250Z,99.90
2018-10-21T01:14:07.533Z,99.90
2018-10-21T01:16:35.714Z,99.90
2018-10-21T01:19:04.061Z,99.90
2018-10-21T01:21:32.216Z,99.90
2018-10-21T01:24:00.395Z,99.90
2018-10-21T01:26:28.621Z,99.90
2018-10-21T01:28:57.453Z,99.90
2018-10-21T01:31:25.592Z,99.90
2018-10-21T01:33:53.758Z,99.90
2018-10-21T01:36:22.221Z,99.90
2018-10-21T01:38:50.066Z,99.90
2018-10-21T01:41:18.217Z,99.90
2018-10-21T01:43:46.370Z,99.90
2018-10-21T01:46:14.545Z,99.90
2018-10-21T01:48:42.681Z,99.90
2018-10-21T01:51:10.895Z,99.90
2018-10-21T01:53:38.989Z,99.90
2018-10-21T01:56:07.153Z,99.90
2018-10-21T01:58:35.285Z,99.90
2018-10-21T02:01:03.460Z,99.90
2018-10-21T02:03:31.605Z,99.90
2018-10-21T02:05:59.765Z,99.90
2018-10-21T02:08:27.917Z,99.90
2018-10-21T02:10:56.062Z,99.90
2018-10-21T02:13:24.217Z,99.90
2018-10-21T02:15:52.378Z,99.90
2018-10-21T02:18:20.531Z,99.90
2018-10-21T02:20:48.677Z,99.90
2018-10-21T02:23:17.080Z,99.90
2018-10-21T02:25:45.230Z,99.90
2018-10-21T02:28:13.401Z,99.90
2018-10-21T02:30:41.541Z,99.90
2018-10-21T02:33:09.740Z,99.90
2018-10-21T02:35:37.841Z,99.90
2018-10-21T02:38:05.969Z,99.90
2018-10-21T02:41:43.860Z,99.90
2018-10-21T02:44:16.133Z,99.90
2018-10-21T02:46:45.014Z,99.90
2018-10-21T02:49:14.012Z,99.90
2018-10-21T02:51:42.164Z,99.90
2018-10-21T02:54:10.763Z,99.90
2018-10-21T02:56:38.907Z,99.90
2018-10-21T02:59:07.201Z,99.90
2018-10-21T03:01:35.392Z,99.90
2018-10-21T03:04:03.549Z,99.90
2018-10-21T03:06:31.676Z,99.90
2018-10-21T03:08:59.928Z,99.90
2018-10-21T03:11:27.996Z,99.90
2018-10-21T03:13:56.141Z,99.90
2018-10-21T03:16:24.277Z,99.90
2018-10-21T03:18:52.413Z,99.90
2018-10-21T03:21:20.699Z,99.90
2018-10-21T03:23:48.710Z,99.90
2018-10-21T03:26:16.857Z,99.90
2018-10-21T03:28:44.998Z,99.90
2018-10-21T03:31:13.139Z,99.90
2018-10-21T03:33:41.402Z,99.90
2018-10-21T03:36:09.441Z,99.90
2018-10-21T03:38:37.593Z,99.90
2018-10-21T03:41:05.803Z,99.90
2018-10-21T03:43:33.949Z,99.90
2018-10-21T03:46:02.120Z,99.90
2018-10-21T03:48:30.269Z,99.90
2018-10-21T03:50:58.409Z,99.90
2018-10-21T03:53:26.569Z,99.90
2018-10-21T03:55:54.705Z,99.90
2018-10-21T03:58:22.869Z,99.90
2018-10-21T04:00:51.019Z,99.90
2018-10-21T04:03:19.169Z,99.90
2018-10-21T04:05:47.316Z,99.90
2018-10-21T04:08:15.465Z,99.90
2018-10-21T04:10:43.654Z,99.90
2018-10-21T04:13:11.809Z,99.90
2018-10-21T04:15:39.941Z,99.90
2018-10-21T04:18:08.389Z,99.90
2018-10-21T04:20:36.537Z,99.90
2018-10-21T04:23:05.101Z,99.90
2018-10-21T04:25:35.192Z,99.90
2018-10-21T04:28:04.478Z,99.90
2018-10-21T04:30:33.718Z,99.90
2018-10-21T04:34:08.702Z,99.90
2018-10-21T04:36:36.869Z,99.90
2018-10-21T04:39:43.433Z,99.90
2018-10-21T04:42:12.330Z,99.90
2018-10-21T04:44:40.477Z,99.90
2018-10-21T04:47:11.195Z,99.90
2018-10-21T04:49:39.651Z,99.90
2018-10-21T04:52:07.886Z,99.90
2018-10-21T04:54:36.613Z,99.90
2018-10-21T04:57:07.017Z,99.90
2018-10-21T04:59:35.956Z,99.90
2018-10-21T05:02:04.143Z,99.90
2018-10-21T05:04:32.319Z,99.90
2018-10-21T05:07:01.353Z,99.90
2018-10-21T05:09:29.521Z,99.90
2018-10-21T05:11:57.794Z,99.90
2018-10-21T05:14:26.058Z,99.90
2018-10-21T05:16:54.205Z,99.90
2018-10-21T05:19:22.358Z,99.90
2018-10-21T05:21:50.741Z,99.90
2018-10-21T05:24:18.886Z,99.90
2018-10-21T05:26:47.024Z,99.90
2018-10-21T05:29:15.166Z,99.90
2018-10-21T05:31:43.372Z,99.90
2018-10-21T05:34:11.648Z,99.90
2018-10-21T05:36:39.737Z,99.90
2018-10-21T05:39:09.485Z,99.90
2018-10-21T05:41:37.701Z,99.90
2018-10-21T05:44:05.890Z,99.90
2018-10-21T05:46:43.476Z,99.90
2018-10-21T05:49:11.653Z,99.90
2018-10-21T05:51:41.104Z,99.90
2018-10-21T05:54:10.326Z,99.90
2018-10-21T05:56:39.235Z,99.90
2018-10-21T05:59:07.773Z,99.90
2018-10-21T06:01:35.989Z,99.90
2018-10-21T06:04:04.193Z,99.90
2018-10-21T06:06:32.321Z,99.90
2018-10-21T06:09:00.494Z,99.90
2018-10-21T06:11:28.685Z,99.90
2018-10-21T06:13:56.859Z,99.90
2018-10-21T06:16:25.037Z,99.90
2018-10-21T06:18:53.291Z,99.90
2018-10-21T06:21:21.451Z,99.90
2018-10-21T06:23:49.615Z,99.90
2018-10-21T06:26:17.756Z,99.90
2018-10-21T06:28:45.999Z,99.90
2018-10-21T06:31:14.220Z,99.90
2018-10-21T06:33:42.401Z,99.90
2018-10-21T06:36:10.494Z,99.90
2018-10-21T06:38:38.641Z,99.90
2018-10-21T06:41:06.803Z,99.90
2018-10-21T06:43:34.957Z,99.90
2018-10-21T06:46:03.216Z,99.90
2018-10-21T06:48:31.409Z,99.90
2018-10-21T06:50:59.584Z,99.90
2018-10-21T06:53:27.705Z,99.90
2018-10-21T06:55:55.862Z,99.90
2018-10-21T06:58:24.016Z,99.90
2018-10-21T07:00:52.247Z,99.90
2018-10-21T07:03:20.399Z,99.90
2018-10-21T07:06:21.429Z,99.90
2018-10-21T07:08:50.636Z,99.90
2018-10-21T07:11:18.788Z,99.90
2018-10-21T07:13:47.645Z,99.90
2018-10-21T07:16:16.250Z,99.90
2018-10-21T07:18:45.405Z,99.90
2018-10-21T07:21:13.788Z,99.90
2018-10-21T07:23:42.036Z,99.90
2018-10-21T07:26:10.342Z,99.90
2018-10-21T07:28:38.775Z,99.90
2018-10-21T07:31:06.959Z,99.90
2018-10-21T07:33:35.202Z,99.90
2018-10-21T07:36:03.431Z,99.90
2018-10-21T07:38:31.650Z,99.90
2018-10-21T07:40:59.857Z,99.90
2018-10-21T07:43:28.119Z,99.90
2018-10-21T07:45:56.415Z,99.90
2018-10-21T07:48:24.525Z,99.90
2018-10-21T07:50:52.749Z,99.90
2018-10-21T07:53:20.959Z,99.90
2018-10-21T07:55:49.353Z,99.90
2018-10-21T07:58:17.554Z,99.90
2018-10-21T08:00:45.784Z,99.90
2018-10-21T08:03:14.123Z,99.90
2018-10-21T08:05:53.694Z,99.90
2018-10-21T08:08:22.978Z,99.90
2018-10-21T08:10:51.253Z,99.90
2018-10-21T08:13:20.769Z,99.90
2018-10-21T08:15:49.038Z,99.90
2018-10-21T08:18:17.250Z,99.90
2018-10-21T08:20:47.643Z,99.90
2018-10-21T08:23:16.927Z,99.90
2018-10-21T08:25:46.546Z,99.90
2018-10-21T08:28:14.733Z,99.90
2018-10-21T08:30:43.064Z,99.90
2018-10-21T08:33:11.302Z,99.90
2018-10-21T08:35:39.567Z,99.90
2018-10-21T08:38:07.754Z,99.90
2018-10-21T08:40:35.997Z,99.90
2018-10-21T08:43:04.281Z,99.90
2018-10-21T08:45:32.522Z,99.90
2018-10-21T08:48:00.785Z,99.90
2018-10-21T08:50:28.995Z,99.90
2018-10-21T08:52:57.269Z,99.90
2018-10-21T08:55:25.459Z,99.90
2018-10-21T08:57:53.710Z,99.90
2018-10-21T09:00:21.879Z,99.90
2018-10-21T09:02:50.068Z,99.90
2018-10-21T09:05:19.176Z,99.90
2018-10-21T09:07:47.544Z,99.90
2018-10-21T09:10:16.721Z,99.90
2018-10-21T09:12:44.869Z,99.90
2018-10-21T09:15:14.987Z,99.90
2018-10-21T09:17:43.141Z,99.90
2018-10-21T09:20:13.522Z,99.90
2018-10-21T09:22:41.815Z,99.90
2018-10-21T09:25:11.003Z,99.90
2018-10-21T09:27:39.822Z,99.90
2018-10-21T09:30:09.450Z,99.90
2018-10-21T09:32:37.764Z,99.90
2018-10-21T09:35:07.221Z,99.90
2018-10-21T09:37:35.640Z,99.90
2018-10-21T09:40:04.141Z,99.90
2018-10-21T09:42:32.293Z,99.90
2018-10-21T09:45:00.473Z,99.90
2018-10-21T09:47:28.789Z,99.90
2018-10-21T09:49:57.005Z,99.90
2018-10-21T09:52:25.177Z,99.90
2018-10-21T09:54:53.385Z,99.90
2018-10-21T09:57:21.649Z,99.90
2018-10-21T09:59:49.906Z,99.90
2018-10-21T10:02:23.402Z,99.90
2018-10-21T10:04:51.692Z,99.90
2018-10-21T10:07:20.071Z,99.90
2018-10-21T10:09:48.317Z,99.90
2018-10-21T10:12:16.510Z,99.90
2018-10-21T10:14:44.690Z,99.90
2018-10-21T10:17:12.953Z,99.90
2018-10-21T10:19:41.253Z,99.90
2018-10-21T10:22:09.633Z,99.90
2018-10-21T10:24:37.761Z,99.90
2018-10-21T10:27:06.130Z,99.90
2018-10-21T10:29:34.525Z,99.90
2018-10-21T10:32:02.706Z,99.90
2018-10-21T10:34:30.919Z,99.90
2018-10-21T10:36:59.166Z,99.90
2018-10-21T10:39:27.285Z,99.90
2018-10-21T10:41:55.676Z,99.90
2018-10-21T10:44:23.766Z,99.90
2018-10-21T10:46:51.944Z,99.90
2018-10-21T10:49:20.192Z,99.90
2018-10-21T10:51:48.356Z,99.90
2018-10-21T10:54:16.548Z,99.90
2018-10-21T10:56:44.837Z,99.90
2018-10-21T10:59:13.107Z,99.90
2018-10-21T11:01:41.345Z,99.90
2018-10-21T11:04:09.809Z,99.90
2018-10-21T11:06:37.905Z,99.90
2018-10-21T11:09:08.042Z,99.90
2018-10-21T11:11:36.950Z,99.90
2018-10-21T11:14:05.397Z,99.90
2018-10-21T11:16:33.717Z,99.90
2018-10-21T11:19:02.605Z,99.90
2018-10-21T11:21:30.766Z,99.90
2018-10-21T11:23:58.938Z,99.90
2018-10-21T11:26:27.130Z,99.90
2018-10-21T11:28:56.454Z,99.90
2018-10-21T11:31:24.731Z,99.90
2018-10-21T11:33:52.947Z,99.90
2018-10-21T11:36:21.228Z,99.90
2018-10-21T11:38:49.490Z,99.90
2018-10-21T11:41:17.738Z,99.50
2018-10-21T11:43:45.948Z,99.90
2018-10-21T11:46:14.705Z,99.90
2018-10-21T11:48:42.884Z,99.90
2018-10-21T11:51:11.777Z,99.90
2018-10-21T11:53:41.691Z,99.90
2018-10-21T11:56:10.361Z,99.20
2018-10-21T11:58:38.529Z,97.40
2018-10-21T12:01:07.562Z,97.70
2018-10-21T12:03:35.760Z,98.60
2018-10-21T12:06:03.948Z,97.10
2018-10-21T12:08:32.122Z,97.70
2018-10-21T12:11:00.280Z,94.90
2018-10-21T12:13:28.437Z,95.30
2018-10-21T12:15:56.617Z,94.70
2018-10-21T12:18:25.484Z,96.00
2018-10-21T12:20:53.667Z,92.70
2018-10-21T12:23:21.833Z,92.90
2018-10-21T12:25:50.076Z,93.90
2018-10-21T12:28:18.577Z,92.90
2018-10-21T12:30:46.701Z,93.70
2018-10-21T12:33:14.898Z,92.90
2018-10-21T12:35:45.823Z,91.20
2018-10-21T12:38:13.983Z,92.90
2018-10-21T12:40:42.149Z,92.10
2018-10-21T12:43:10.787Z,93.30
2018-10-21T12:45:38.901Z,94.30
2018-10-21T12:48:07.068Z,92.70
2018-10-21T12:50:35.233Z,91.80
2018-10-21T12:53:03.426Z,92.20
2018-10-21T12:55:31.581Z,92.00
2018-10-21T12:57:59.841Z,90.30
2018-10-21T13:00:27.962Z,90.50
2018-10-21T13:02:56.133Z,90.50
2018-10-21T13:05:24.311Z,90.30
2018-10-21T13:07:52.449Z,90.60
2018-10-21T13:10:20.609Z,89.80
2018-10-21T13:12:48.819Z,90.30
2018-10-21T13:15:16.962Z,90.80
2018-10-21T13:17:45.120Z,90.70
2018-10-21T13:20:13.295Z,89.70
2018-10-21T13:22:41.469Z,89.00
2018-10-21T13:25:09.736Z,86.30
2018-10-21T13:27:37.846Z,85.60
2018-10-21T13:30:06.822Z,86.70
2018-10-21T13:32:35.022Z,87.40
2018-10-21T13:35:03.206Z,86.10
2018-10-21T13:37:31.378Z,90.90
2018-10-21T13:39:59.583Z,91.60
2018-10-21T13:42:27.727Z,91.80
2018-10-21T13:44:55.895Z,92.90
2018-10-21T13:47:24.057Z,93.20
2018-10-21T13:49:52.262Z,92.60
2018-10-21T13:52:20.492Z,91.50
2018-10-21T13:54:48.602Z,92.70
2018-10-21T13:57:16.775Z,91.80
2018-10-21T13:59:44.938Z,91.70
2018-10-21T14:02:13.095Z,92.50
2018-10-21T14:04:41.276Z,92.30
2018-10-21T14:07:09.481Z,93.00
2018-10-21T14:09:37.588Z,92.90
2018-10-21T14:12:05.769Z,93.50
2018-10-21T14:14:33.917Z,93.20
2018-10-21T14:17:02.086Z,93.50
2018-10-21T14:19:30.238Z,94.30
2018-10-21T14:21:58.462Z,95.20
2018-10-21T14:24:26.590Z,95.10
2018-10-21T14:26:54.742Z,93.90
2018-10-21T14:29:22.906Z,94.60
2018-10-21T14:31:51.100Z,95.00
2018-10-21T14:34:19.244Z,95.10
2018-10-21T14:36:47.407Z,94.70
2018-10-21T14:39:15.709Z,94.50
2018-10-21T14:41:43.841Z,95.80
2018-10-21T14:44:12.033Z,95.90
2018-10-21T14:46:40.189Z,96.00
2018-10-21T14:49:09.309Z,96.30
2018-10-21T14:51:37.478Z,96.10
2018-10-21T14:54:05.685Z,96.20
2018-10-21T14:56:33.841Z,96.90
2018-10-21T14:59:02.014Z,96.80
2018-10-21T15:01:30.185Z,96.80
2018-10-21T15:03:58.371Z,97.40
2018-10-21T15:06:26.502Z,97.10
2018-10-21T15:08:54.690Z,97.40
2018-10-21T15:11:23.423Z,97.70
2018-10-21T15:13:51.710Z,97.20
2018-10-21T15:16:20.153Z,97.80
2018-10-21T15:18:48.309Z,98.40
2018-10-21T15:21:17.715Z,99.80
2018-10-21T15:23:45.907Z,99.60
2018-10-21T15:26:14.193Z,99.80
2018-10-21T15:28:42.284Z,99.60
2018-10-21T15:31:10.504Z,99.80
2018-10-21T15:33:38.675Z,99.10
2018-10-21T15:36:06.845Z,99.50
2018-10-21T15:38:35.005Z,99.20
2018-10-21T15:41:03.170Z,99.90
2018-10-21T15:43:31.336Z,99.90
2018-10-21T15:45:59.529Z,99.50
2018-10-21T15:48:27.701Z,99.90
2018-10-21T15:50:56.134Z,99.90
2018-10-21T15:53:24.294Z,99.90
2018-10-21T15:55:52.468Z,99.90
2018-10-21T15:58:20.679Z,99.90
2018-10-21T16:00:48.872Z,99.90
2018-10-21T16:03:17.037Z,99.90
2018-10-21T16:05:45.213Z,99.90
2018-10-21T16:08:13.423Z,99.90
2018-10-21T16:10:41.681Z,99.90
2018-10-21T16:13:10.476Z,99.90
2018-10-21T16:15:39.114Z,99.90
2018-10-21T16:18:07.546Z,99.90
2018-10-21T16:20:35.711Z,99.90
2018-10-21T16:23:03.994Z,99.90
2018-10-21T16:25:32.280Z,99.90
2018-10-21T16:28:00.440Z,99.90
2018-10-21T16:30:28.542Z,99.90
2018-10-21T16:32:56.905Z,99.90
2018-10-21T16:35:25.029Z,99.90
2018-10-21T16:37:53.272Z,99.90
2018-10-21T16:40:21.443Z,99.90
2018-10-21T16:42:49.613Z,99.90
2018-10-21T16:45:18.401Z,99.90
2018-10-21T16:47:46.512Z,99.90
2018-10-21T16:50:15.936Z,99.90
2018-10-21T16:52:44.829Z,99.90
2018-10-21T16:55:13.502Z,99.90
2018-10-21T16:57:41.833Z,99.90
2018-10-21T17:00:13.171Z,99.90
2018-10-21T17:02:41.526Z,99.90
2018-10-21T17:05:10.048Z,99.90
2018-10-21T17:07:38.293Z,99.90
2018-10-21T17:10:07.387Z,99.90
2018-10-21T17:12:35.543Z,99.90
2018-10-21T17:15:03.929Z,99.90
2018-10-21T17:17:32.090Z,99.90
2018-10-21T17:20:00.404Z,99.90
2018-10-21T17:22:28.589Z,99.90
2018-10-21T17:24:56.806Z,99.90
2018-10-21T17:27:25.013Z,99.90
2018-10-21T17:29:53.183Z,99.90
2018-10-21T17:32:21.328Z,99.90
2018-10-21T17:34:49.511Z,99.90
2018-10-21T17:37:17.843Z,99.90
2018-10-21T17:39:45.850Z,99.90
2018-10-21T17:42:14.037Z,99.90
2018-10-21T17:44:42.221Z,99.90
2018-10-21T17:47:10.581Z,99.90
2018-10-21T17:49:38.753Z,99.90
2018-10-21T17:52:07.006Z,99.90
2018-10-21T17:54:35.182Z,99.90
2018-10-21T17:57:03.351Z,99.90
2018-10-21T17:59:31.484Z,99.90
2018-10-21T18:01:59.656Z,99.90
2018-10-21T18:04:28.174Z,99.90
2018-10-21T18:06:56.359Z,99.90
2018-10-21T18:09:24.483Z,99.90
2018-10-21T18:11:52.637Z,99.90
2018-10-21T18:14:20.813Z,99.90
2018-10-21T18:16:48.965Z,99.90
2018-10-21T18:19:17.152Z,99.90
2018-10-21T18:21:45.306Z,99.90
2018-10-21T18:24:13.465Z,99.90
2018-10-21T18:26:42.513Z,99.90
2018-10-21T18:29:10.654Z,99.90
2018-10-21T18:31:38.817Z,99.90
2018-10-21T18:34:07.087Z,99.90
2018-10-21T18:36:35.150Z,99.90
2018-10-21T18:39:03.449Z,99.90
2018-10-21T18:41:31.597Z,99.90
2018-10-21T18:43:59.765Z,99.90
2018-10-21T18:46:27.968Z,99.90
2018-10-21T18:48:56.232Z,99.90
2018-10-21T18:51:24.402Z,99.90
2018-10-21T18:53:52.557Z,99.90
2018-10-21T18:56:20.729Z,99.90
2018-10-21T18:58:48.970Z,99.90
2018-10-21T19:01:17.121Z,99.90
2018-10-21T19:03:45.195Z,99.90
2018-10-21T19:06:13.487Z,99.90
2018-10-21T19:08:41.707Z,99.90
2018-10-21T19:11:10.016Z,99.90
2018-10-21T19:13:38.211Z,99.90
2018-10-21T19:16:06.529Z,99.90
2018-10-21T19:18:34.647Z,99.90
2018-10-21T19:21:02.798Z,99.90
2018-10-21T19:23:31.014Z,99.90
2018-10-21T19:25:59.191Z,99.90
2018-10-21T19:28:27.504Z,99.90
2018-10-21T19:30:55.917Z,99.90
2018-10-21T19:33:24.133Z,99.90
2018-10-21T19:35:52.329Z,99.90
2018-10-21T19:38:20.470Z,99.90
2018-10-21T19:40:48.701Z,99.90
2018-10-21T19:43:19.068Z,99.90
2018-10-21T19:45:47.065Z,99.90
2018-10-21T19:48:15.273Z,99.90
2018-10-21T19:50:43.441Z,99.90
2018-10-21T19:53:11.609Z,99.90
2018-10-21T19:55:39.754Z,99.90
2018-10-21T19:58:08.065Z,99.90
2018-10-21T20:00:36.231Z,99.90
2018-10-21T20:03:04.391Z,99.90
2018-10-21T20:05:32.561Z,99.90
2018-10-21T20:08:00.876Z,99.90
2018-10-21T20:10:29.520Z,99.90
2018-10-21T20:12:57.798Z,99.90
2018-10-21T20:15:26.097Z,99.90
2018-10-21T20:17:54.411Z,99.90
2018-10-21T20:20:22.558Z,99.90
2018-10-21T20:22:50.716Z,99.90
2018-10-21T20:25:18.912Z,99.90
2018-10-21T20:27:47.412Z,99.90
2018-10-21T20:30:15.620Z,99.90
2018-10-21T20:32:44.001Z,99.90
2018-10-21T20:35:12.558Z,99.90
2018-10-21T20:37:40.770Z,99.90
2018-10-21T20:40:09.762Z,99.90
2018-10-21T20:42:38.035Z,99.90
2018-10-21T20:45:07.549Z,99.90
2018-10-21T20:47:35.856Z,99.90
2018-10-21T20:50:04.537Z,99.90
2018-10-21T20:52:32.697Z,99.90
2018-10-21T20:55:00.868Z,99.90
2018-10-21T20:57:29.046Z,99.90
2018-10-21T20:59:57.257Z,99.90
2018-10-21T21:02:25.396Z,99.90
2018-10-21T21:04:53.585Z,99.90
2018-10-21T21:07:21.764Z,99.90
2018-10-21T21:09:49.916Z,99.90
2018-10-21T21:12:18.165Z,99.90
2018-10-21T21:14:46.509Z,99.90
2018-10-21T21:17:14.678Z,99.90
2018-10-21T21:19:42.873Z,99.90
2018-10-21T21:22:11.069Z,99.90
2018-10-21T21:24:39.201Z,99.90
2018-10-21T21:27:07.367Z,99.90
2018-10-21T21:29:35.534Z,99.90
2018-10-21T21:32:03.805Z,99.90
2018-10-21T21:34:32.034Z,99.90
2018-10-21T21:37:00.198Z,99.90
2018-10-21T21:39:28.355Z,99.90
2018-10-21T21:41:56.533Z,99.90
2018-10-21T21:44:24.725Z,99.90
2018-10-21T21:46:52.902Z,99.90
2018-10-21T21:49:21.041Z,99.90
2018-10-21T21:51:49.225Z,99.90
2018-10-21T21:54:17.523Z,99.90
2018-10-21T21:56:46.577Z,99.90
2018-10-21T21:59:14.790Z,99.90
2018-10-21T22:01:42.943Z,99.90
2018-10-21T22:04:11.239Z,99.90
2018-10-21T22:06:39.355Z,99.90
2018-10-21T22:09:09.261Z,99.90
2018-10-21T22:11:37.525Z,99.90
2018-10-21T22:14:05.942Z,99.90
2018-10-21T22:16:34.702Z,99.90
2018-10-21T22:19:02.871Z,99.90
2018-10-21T22:21:31.072Z,99.90
2018-10-21T22:23:59.253Z,99.90
2018-10-21T22:26:27.390Z,99.90
2018-10-21T22:28:55.565Z,99.90
2018-10-21T22:31:23.718Z,99.90
2018-10-21T22:33:51.913Z,99.90
2018-10-21T22:36:20.086Z,99.90
2018-10-21T22:38:48.325Z,99.90
2018-10-21T22:41:16.513Z,99.90
2018-10-21T22:43:44.773Z,99.90
2018-10-21T22:46:12.940Z,99.90
2018-10-21T22:48:41.097Z,99.90
2018-10-21T22:51:09.507Z,99.90
2018-10-21T22:53:37.665Z,99.90
2018-10-21T22:56:05.909Z,99.90
2018-10-21T22:58:34.192Z,99.90
2018-10-21T23:01:02.365Z,99.90
2018-10-21T23:03:30.549Z,99.90
2018-10-21T23:05:58.748Z,99.90
2018-10-21T23:08:26.874Z,99.90
2018-10-21T23:10:55.026Z,99.90
2018-10-21T23:13:23.209Z,99.90
2018-10-21T23:15:51.379Z,99.90
2018-10-21T23:18:19.706Z,99.90
2018-10-21T23:20:47.814Z,99.90
2018-10-21T23:23:15.993Z,99.90
2018-10-21T23:25:44.182Z,99.90
2018-10-21T23:28:12.512Z,99.90
2018-10-21T23:30:40.649Z,99.90
2018-10-21T23:33:09.057Z,99.90
2018-10-21T23:35:37.237Z,99.90
2018-10-21T23:38:05.569Z,99.90
2018-10-21T23:40:33.750Z,99.90
2018-10-21T23:43:01.986Z,99.90
2018-10-21T23:45:30.175Z,99.90
2018-10-21T23:47:58.383Z,99.90
2018-10-21T23:50:26.511Z,99.90
2018-10-21T23:52:54.684Z,99.90
2018-10-21T23:55:22.849Z,99.90
2018-10-21T23:57:51.032Z,99.90
